AEA238 SEQM-SEGU
Flight info
| Callsign | AEA238 |
|---|---|
| Flight time | 0h 26m |
| Altitude | 24000 |
| Route | TEMOX3B TEMOX TEMOX2 |
| Aircraft | B788/H-SDE1E2E3FGHIJ2J3J4J5M1RWXY/LB1D1 |
Departure
| Time | 2026-04-24 23:23 |
|---|---|
| Airport | Mariscal Sucre International Airport (SEQM) |
Arrival
| Time | 2026-04-24 23:50 |
|---|---|
| Airport | José Joaquín de Olmedo International Airport (SEGU) |
| Time | Latitude | Longitude | Altitude | Speed | Heading |
|---|---|---|---|---|---|
| 2026-04-24 23:06 | -0.12612 | -78.35903 | 7848 ft | 0 kts | 266° |
| 2026-04-24 23:14 | -0.12612 | -78.35881 | 7848 ft | 4 kts | 276° |
| 2026-04-24 23:14 | -0.12613 | -78.35857 | 7848 ft | 4 kts | 253° |
| 2026-04-24 23:14 | -0.12602 | -78.35840 | 7848 ft | 4 kts | 226° |
| 2026-04-24 23:15 | -0.12582 | -78.35828 | 7848 ft | 4 kts | 195° |
| 2026-04-24 23:15 | -0.12561 | -78.35824 | 7848 ft | 1 kts | 189° |
| 2026-04-24 23:15 | -0.12557 | -78.35823 | 7848 ft | 0 kts | 189° |
| 2026-04-24 23:18 | -0.12568 | -78.35826 | 7848 ft | 2 kts | 210° |
| 2026-04-24 23:18 | -0.12594 | -78.35844 | 7848 ft | 6 kts | 200° |
| 2026-04-24 23:18 | -0.12658 | -78.35833 | 7848 ft | 14 kts | 148° |
| 2026-04-24 23:19 | -0.12694 | -78.35753 | 7852 ft | 10 kts | 89° |
| 2026-04-24 23:19 | -0.12690 | -78.35696 | 7855 ft | 6 kts | 86° |
| 2026-04-24 23:19 | -0.12689 | -78.35669 | 7859 ft | 3 kts | 89° |
| 2026-04-24 23:19 | -0.12689 | -78.35643 | 7863 ft | 7 kts | 92° |
| 2026-04-24 23:20 | -0.12703 | -78.35617 | 7866 ft | 7 kts | 141° |
| 2026-04-24 23:20 | -0.12800 | -78.35599 | 7872 ft | 22 kts | 177° |
| 2026-04-24 23:20 | -0.13012 | -78.35587 | 7879 ft | 35 kts | 177° |
| 2026-04-24 23:20 | -0.13233 | -78.35580 | 7889 ft | 30 kts | 178° |
| 2026-04-24 23:21 | -0.13431 | -78.35571 | 7892 ft | 27 kts | 180° |
| 2026-04-24 23:21 | -0.13607 | -78.35558 | 7898 ft | 23 kts | 172° |
| 2026-04-24 23:21 | -0.13761 | -78.35556 | 7911 ft | 23 kts | 180° |
| 2026-04-24 23:21 | -0.13936 | -78.35550 | 7908 ft | 27 kts | 177° |
| 2026-04-24 23:22 | -0.14125 | -78.35540 | 7922 ft | 27 kts | 177° |
| 2026-04-24 23:22 | -0.14248 | -78.35444 | 7922 ft | 25 kts | 92° |
| 2026-04-24 23:22 | -0.14130 | -78.35368 | 7915 ft | 29 kts | 352° |
| 2026-04-24 23:22 | -0.13839 | -78.35382 | 7907 ft | 61 kts | 359° |
| 2026-04-24 23:23 | -0.13250 | -78.35402 | 7890 ft | 107 kts | 356° |
| 2026-04-24 23:23 | -0.12359 | -78.35447 | 7850 ft | 149 kts | 354° |
| 2026-04-24 23:23 | -0.11249 | -78.35495 | 8128 ft | 165 kts | 0° |
| 2026-04-24 23:23 | -0.10031 | -78.35534 | 8558 ft | 186 kts | 359° |
| 2026-04-24 23:24 | -0.08719 | -78.35583 | 9354 ft | 192 kts | 357° |
| 2026-04-24 23:24 | -0.07351 | -78.35696 | 10174 ft | 200 kts | 352° |
| 2026-04-24 23:24 | -0.05962 | -78.36065 | 10696 ft | 225 kts | 339° |
| 2026-04-24 23:24 | -0.04655 | -78.37118 | 10826 ft | 267 kts | 301° |
| 2026-04-24 23:25 | -0.04224 | -78.38962 | 11511 ft | 285 kts | 270° |
| 2026-04-24 23:25 | -0.04382 | -78.41019 | 12232 ft | 307 kts | 265° |
| 2026-04-24 23:25 | -0.04550 | -78.43198 | 12987 ft | 317 kts | 270° |
| 2026-04-24 23:25 | -0.04534 | -78.45369 | 14049 ft | 318 kts | 272° |
| 2026-04-24 23:26 | -0.04457 | -78.47631 | 14609 ft | 336 kts | 272° |
| 2026-04-24 23:26 | -0.04426 | -78.50036 | 15335 ft | 349 kts | 270° |
| 2026-04-24 23:26 | -0.04428 | -78.52446 | 16172 ft | 356 kts | 270° |
| 2026-04-24 23:26 | -0.04416 | -78.54935 | 17070 ft | 361 kts | 271° |
| 2026-04-24 23:27 | -0.04437 | -78.57464 | 17808 ft | 371 kts | 264° |
| 2026-04-24 23:27 | -0.05182 | -78.59964 | 18516 ft | 382 kts | 243° |
| 2026-04-24 23:27 | -0.06762 | -78.62120 | 19186 ft | 390 kts | 227° |
| 2026-04-24 23:27 | -0.08715 | -78.64060 | 19659 ft | 404 kts | 224° |
| 2026-04-24 23:28 | -0.10804 | -78.65987 | 20177 ft | 413 kts | 224° |
| 2026-04-24 23:28 | -0.12864 | -78.67973 | 20801 ft | 419 kts | 225° |
| 2026-04-24 23:28 | -0.14926 | -78.70046 | 21397 ft | 424 kts | 225° |
| 2026-04-24 23:28 | -0.17036 | -78.72138 | 22042 ft | 430 kts | 224° |
| 2026-04-24 23:29 | -0.19202 | -78.74235 | 22557 ft | 438 kts | 224° |
| 2026-04-24 23:29 | -0.21396 | -78.76367 | 23119 ft | 443 kts | 224° |
| 2026-04-24 23:29 | -0.23613 | -78.78547 | 23674 ft | 449 kts | 224° |
| 2026-04-24 23:29 | -0.25846 | -78.80746 | 24110 ft | 456 kts | 224° |
| 2026-04-24 23:30 | -0.28145 | -78.82993 | 24218 ft | 468 kts | 224° |
| 2026-04-24 23:30 | -0.30510 | -78.85302 | 24214 ft | 483 kts | 224° |
| 2026-04-24 23:30 | -0.32910 | -78.87653 | 24225 ft | 496 kts | 224° |
| 2026-04-24 23:30 | -0.35401 | -78.90098 | 24228 ft | 508 kts | 224° |
| 2026-04-24 23:31 | -0.37949 | -78.92594 | 24223 ft | 516 kts | 224° |
| 2026-04-24 23:31 | -0.40511 | -78.95101 | 24225 ft | 516 kts | 224° |
| 2026-04-24 23:31 | -0.43072 | -78.97608 | 24224 ft | 517 kts | 224° |
| 2026-04-24 23:31 | -0.45646 | -79.00131 | 24196 ft | 517 kts | 224° |
| 2026-04-24 23:32 | -0.48214 | -79.02647 | 24196 ft | 517 kts | 224° |
| 2026-04-24 23:32 | -0.50781 | -79.05160 | 24197 ft | 517 kts | 224° |
| 2026-04-24 23:32 | -0.53350 | -79.07676 | 24194 ft | 516 kts | 224° |
| 2026-04-24 23:32 | -0.55913 | -79.10187 | 24197 ft | 516 kts | 224° |
| 2026-04-24 23:33 | -0.58592 | -79.12488 | 24197 ft | 515 kts | 214° |
| 2026-04-24 23:33 | -0.60655 | -79.13749 | 24152 ft | 515 kts | 207° |
| 2026-04-24 23:33 | -0.64948 | -79.15755 | 24143 ft | 515 kts | 204° |
| 2026-04-24 23:33 | -0.68215 | -79.17234 | 24149 ft | 515 kts | 204° |
| 2026-04-24 23:34 | -0.71461 | -79.18745 | 24147 ft | 515 kts | 205° |
| 2026-04-24 23:34 | -0.74698 | -79.20274 | 24149 ft | 515 kts | 205° |
| 2026-04-24 23:34 | -0.77948 | -79.21788 | 24168 ft | 515 kts | 204° |
| 2026-04-24 23:34 | -0.81201 | -79.23286 | 24163 ft | 516 kts | 204° |
| 2026-04-24 23:35 | -0.84457 | -79.24795 | 24161 ft | 515 kts | 204° |
| 2026-04-24 23:35 | -0.87709 | -79.26315 | 24159 ft | 515 kts | 204° |
| 2026-04-24 23:35 | -0.90947 | -79.27825 | 24175 ft | 515 kts | 204° |
| 2026-04-24 23:35 | -0.94157 | -79.29313 | 24090 ft | 515 kts | 204° |
| 2026-04-24 23:36 | -0.97412 | -79.30822 | 24091 ft | 515 kts | 204° |
| 2026-04-24 23:36 | -1.00657 | -79.32333 | 24090 ft | 515 kts | 204° |
| 2026-04-24 23:36 | -1.03897 | -79.33842 | 24092 ft | 515 kts | 204° |
| 2026-04-24 23:36 | -1.07143 | -79.35351 | 24087 ft | 515 kts | 204° |
| 2026-04-24 23:37 | -1.10391 | -79.36859 | 24084 ft | 515 kts | 204° |
| 2026-04-24 23:37 | -1.13636 | -79.38368 | 24025 ft | 513 kts | 204° |
| 2026-04-24 23:37 | -1.20050 | -79.41352 | 23601 ft | 510 kts | 205° |
| 2026-04-24 23:38 | -1.23266 | -79.42847 | 22744 ft | 514 kts | 205° |
| 2026-04-24 23:38 | -1.26511 | -79.44356 | 21714 ft | 514 kts | 205° |
| 2026-04-24 23:38 | -1.29756 | -79.45865 | 20678 ft | 513 kts | 205° |
| 2026-04-24 23:38 | -1.32978 | -79.47363 | 19654 ft | 511 kts | 205° |
| 2026-04-24 23:39 | -1.36196 | -79.48860 | 18625 ft | 508 kts | 205° |
| 2026-04-24 23:39 | -1.39389 | -79.50345 | 17747 ft | 502 kts | 205° |
| 2026-04-24 23:39 | -1.42441 | -79.51763 | 17124 ft | 459 kts | 205° |
| 2026-04-24 23:39 | -1.45242 | -79.53065 | 16380 ft | 439 kts | 205° |
| 2026-04-24 23:40 | -1.47999 | -79.54350 | 15607 ft | 436 kts | 205° |
| 2026-04-24 23:40 | -1.50745 | -79.55628 | 14858 ft | 433 kts | 205° |
| 2026-04-24 23:40 | -1.53429 | -79.56875 | 14142 ft | 430 kts | 205° |
| 2026-04-24 23:40 | -1.56129 | -79.58131 | 13318 ft | 426 kts | 205° |
| 2026-04-24 23:41 | -1.58806 | -79.59375 | 12522 ft | 422 kts | 205° |
| 2026-04-24 23:41 | -1.61456 | -79.60607 | 11751 ft | 418 kts | 205° |
| 2026-04-24 23:41 | -1.64066 | -79.61821 | 11160 ft | 410 kts | 205° |
| 2026-04-24 23:41 | -1.66612 | -79.63004 | 10912 ft | 393 kts | 205° |
| 2026-04-24 23:42 | -1.69023 | -79.64124 | 10764 ft | 375 kts | 205° |
| 2026-04-24 23:42 | -1.71365 | -79.65214 | 10276 ft | 368 kts | 205° |
| 2026-04-24 23:42 | -1.73654 | -79.66279 | 10015 ft | 355 kts | 205° |
| 2026-04-24 23:42 | -1.75843 | -79.67296 | 9872 ft | 342 kts | 205° |
| 2026-04-24 23:43 | -1.77987 | -79.68293 | 9434 ft | 342 kts | 205° |
| 2026-04-24 23:43 | -1.80129 | -79.69289 | 8913 ft | 338 kts | 205° |
| 2026-04-24 23:43 | -1.82248 | -79.70274 | 8399 ft | 334 kts | 205° |
| 2026-04-24 23:43 | -1.84279 | -79.71218 | 7888 ft | 309 kts | 205° |
| 2026-04-24 23:44 | -1.86159 | -79.72092 | 7382 ft | 287 kts | 205° |
| 2026-04-24 23:44 | -1.87912 | -79.72907 | 6853 ft | 270 kts | 205° |
| 2026-04-24 23:44 | -1.89574 | -79.73680 | 6367 ft | 256 kts | 205° |
| 2026-04-24 23:44 | -1.91163 | -79.74420 | 5852 ft | 251 kts | 206° |
| 2026-04-24 23:45 | -1.92734 | -79.75150 | 5349 ft | 245 kts | 206° |
| 2026-04-24 23:45 | -1.94257 | -79.75875 | 4848 ft | 240 kts | 209° |
| 2026-04-24 23:45 | -1.95665 | -79.76737 | 4374 ft | 234 kts | 211° |
| 2026-04-24 23:45 | -1.97052 | -79.77542 | 3879 ft | 229 kts | 211° |
| 2026-04-24 23:46 | -1.98413 | -79.78330 | 3568 ft | 228 kts | 211° |
| 2026-04-24 23:46 | -1.99779 | -79.79122 | 3269 ft | 225 kts | 210° |
| 2026-04-24 23:46 | -2.01110 | -79.79894 | 2988 ft | 220 kts | 210° |
| 2026-04-24 23:46 | -2.02398 | -79.80640 | 2706 ft | 208 kts | 210° |
| 2026-04-24 23:47 | -2.03639 | -79.81358 | 2444 ft | 207 kts | 210° |
| 2026-04-24 23:47 | -2.04877 | -79.82074 | 2180 ft | 200 kts | 210° |
| 2026-04-24 23:47 | -2.06030 | -79.82742 | 1925 ft | 185 kts | 210° |
| 2026-04-24 23:47 | -2.07102 | -79.83364 | 1704 ft | 171 kts | 210° |
| 2026-04-24 23:48 | -2.08103 | -79.83941 | 1489 ft | 160 kts | 211° |
| 2026-04-24 23:48 | -2.09046 | -79.84489 | 1276 ft | 154 kts | 210° |
| 2026-04-24 23:48 | -2.09936 | -79.85003 | 1094 ft | 148 kts | 211° |
| 2026-04-24 23:48 | -2.10812 | -79.85513 | 898 ft | 146 kts | 210° |
| 2026-04-24 23:49 | -2.11692 | -79.86032 | 727 ft | 151 kts | 210° |
| 2026-04-24 23:49 | -2.12593 | -79.86556 | 581 ft | 152 kts | 210° |
| 2026-04-24 23:49 | -2.13509 | -79.87088 | 375 ft | 152 kts | 209° |
| 2026-04-24 23:49 | -2.14433 | -79.87621 | 153 ft | 157 kts | 209° |
| 2026-04-24 23:50 | -2.15366 | -79.88137 | 27 ft | 146 kts | 210° |
| 2026-04-24 23:50 | -2.16043 | -79.88542 | 28 ft | 68 kts | 210° |
| 2026-04-24 23:50 | -2.16350 | -79.88718 | 28 ft | 32 kts | 210° |
| 2026-04-24 23:50 | -2.16542 | -79.88825 | 29 ft | 32 kts | 208° |
| 2026-04-24 23:51 | -2.16703 | -79.88917 | 28 ft | 11 kts | 224° |
| 2026-04-24 23:51 | -2.16708 | -79.88977 | 28 ft | 14 kts | 311° |
| 2026-04-24 23:51 | -2.16531 | -79.88933 | 28 ft | 37 kts | 31° |
| 2026-04-24 23:51 | -2.16398 | -79.88857 | 29 ft | 17 kts | 29° |
| 2026-04-24 23:52 | -2.16293 | -79.88797 | 28 ft | 17 kts | 30° |
| 2026-04-24 23:52 | -2.16188 | -79.88735 | 29 ft | 18 kts | 30° |
| 2026-04-24 23:52 | -2.16089 | -79.88677 | 29 ft | 16 kts | 31° |
| 2026-04-24 23:52 | -2.16002 | -79.88625 | 28 ft | 12 kts | 28° |
| 2026-04-24 23:53 | -2.15943 | -79.88592 | 28 ft | 8 kts | 30° |
| 2026-04-24 23:53 | -2.15889 | -79.88561 | 28 ft | 12 kts | 30° |
| 2026-04-24 23:53 | -2.15779 | -79.88497 | 28 ft | 21 kts | 30° |
| 2026-04-24 23:53 | -2.15651 | -79.88423 | 27 ft | 21 kts | 31° |
| 2026-04-24 23:54 | -2.15522 | -79.88349 | 27 ft | 21 kts | 29° |
| 2026-04-24 23:54 | -2.15392 | -79.88276 | 27 ft | 24 kts | 30° |
| 2026-04-24 23:54 | -2.15265 | -79.88236 | 27 ft | 15 kts | 320° |
| 2026-04-24 23:54 | -2.15212 | -79.88322 | 28 ft | 15 kts | 296° |
| 2026-04-24 23:55 | -2.15171 | -79.88389 | 28 ft | 7 kts | 329° |
| 2026-04-24 23:55 | -2.15142 | -79.88390 | 28 ft | 8 kts | 12° |
| 2026-04-24 23:55 | -2.15087 | -79.88375 | 28 ft | 4 kts | 4° |
| 2026-04-24 23:55 | -2.15058 | -79.88388 | 28 ft | 8 kts | 324° |
| 2026-04-24 23:56 | -2.15032 | -79.88412 | 28 ft | 0 kts | 309° |
| 2026-04-24 23:56 | -2.15030 | -79.88415 | 28 ft | 0 kts | 308° |